sensor_id;sensor_type;location;lat;lon;timestamp;P1;durP1;ratioP1;P2;durP2;ratioP2
76318;SDS011;65131;48.894;8.422;2022-11-18T00:00:12;1.67;;;0.63;;
76318;SDS011;65131;48.894;8.422;2022-11-18T00:02:38;2.28;;;1.20;;
76318;SDS011;65131;48.894;8.422;2022-11-18T00:05:04;2.92;;;1.23;;
76318;SDS011;65131;48.894;8.422;2022-11-18T00:07:30;1.98;;;1.08;;
76318;SDS011;65131;48.894;8.422;2022-11-18T00:09:55;3.03;;;1.23;;
76318;SDS011;65131;48.894;8.422;2022-11-18T00:12:21;2.53;;;1.15;;
76318;SDS011;65131;48.894;8.422;2022-11-18T00:15:05;2.03;;;0.80;;
76318;SDS011;65131;48.894;8.422;2022-11-18T00:17:31;2.42;;;1.05;;
76318;SDS011;65131;48.894;8.422;2022-11-18T00:19:57;2.85;;;1.00;;
76318;SDS011;65131;48.894;8.422;2022-11-18T00:22:22;2.75;;;1.23;;
76318;SDS011;65131;48.894;8.422;2022-11-18T00:24:48;2.85;;;1.30;;
76318;SDS011;65131;48.894;8.422;2022-11-18T00:27:14;2.47;;;1.02;;
76318;SDS011;65131;48.894;8.422;2022-11-18T00:29:39;2.83;;;1.10;;
76318;SDS011;65131;48.894;8.422;2022-11-18T00:32:05;2.75;;;1.15;;
76318;SDS011;65131;48.894;8.422;2022-11-18T00:34:31;2.00;;;1.20;;
76318;SDS011;65131;48.894;8.422;2022-11-18T00:36:57;2.25;;;1.17;;
76318;SDS011;65131;48.894;8.422;2022-11-18T00:39:22;2.03;;;1.10;;
76318;SDS011;65131;48.894;8.422;2022-11-18T00:41:48;2.67;;;1.33;;
76318;SDS011;65131;48.894;8.422;2022-11-18T00:44:32;1.95;;;0.95;;
76318;SDS011;65131;48.894;8.422;2022-11-18T00:46:58;2.10;;;1.13;;
76318;SDS011;65131;48.894;8.422;2022-11-18T00:49:24;1.42;;;1.02;;
76318;SDS011;65131;48.894;8.422;2022-11-18T00:51:50;1.73;;;1.13;;
76318;SDS011;65131;48.894;8.422;2022-11-18T00:54:15;2.90;;;1.20;;
76318;SDS011;65131;48.894;8.422;2022-11-18T00:56:41;2.55;;;1.08;;
76318;SDS011;65131;48.894;8.422;2022-11-18T00:59:07;2.45;;;1.08;;
76318;SDS011;65131;48.894;8.422;2022-11-18T01:01:33;1.92;;;1.10;;
76318;SDS011;65131;48.894;8.422;2022-11-18T01:03:58;2.50;;;0.98;;
76318;SDS011;65131;48.894;8.422;2022-11-18T01:06:24;2.20;;;0.95;;
76318;SDS011;65131;48.894;8.422;2022-11-18T01:08:50;1.98;;;1.08;;
76318;SDS011;65131;48.894;8.422;2022-11-18T01:11:16;2.13;;;1.00;;
76318;SDS011;65131;48.894;8.422;2022-11-18T01:14:00;2.03;;;1.38;;
76318;SDS011;65131;48.894;8.422;2022-11-18T01:16:26;1.00;;;0.55;;
76318;SDS011;65131;48.894;8.422;2022-11-18T01:18:52;1.40;;;0.80;;
76318;SDS011;65131;48.894;8.422;2022-11-18T01:21:19;1.98;;;1.20;;
76318;SDS011;65131;48.894;8.422;2022-11-18T01:23:45;3.13;;;1.00;;
76318;SDS011;65131;48.894;8.422;2022-11-18T01:26:11;3.28;;;1.30;;
76318;SDS011;65131;48.894;8.422;2022-11-18T01:28:42;1.73;;;0.95;;
76318;SDS011;65131;48.894;8.422;2022-11-18T01:33:44;3.13;;;1.20;;
76318;SDS011;65131;48.894;8.422;2022-11-18T01:36:17;2.08;;;1.05;;
76318;SDS011;65131;48.894;8.422;2022-11-18T01:38:43;1.65;;;0.88;;
76318;SDS011;65131;48.894;8.422;2022-11-18T01:41:09;1.60;;;1.00;;
76318;SDS011;65131;48.894;8.422;2022-11-18T01:46:22;1.65;;;1.00;;
76318;SDS011;65131;48.894;8.422;2022-11-18T01:48:53;1.85;;;1.50;;
76318;SDS011;65131;48.894;8.422;2022-11-18T01:51:24;1.65;;;0.95;;
76318;SDS011;65131;48.894;8.422;2022-11-18T01:53:53;1.40;;;0.98;;
76318;SDS011;65131;48.894;8.422;2022-11-18T01:56:26;1.73;;;0.90;;
76318;SDS011;65131;48.894;8.422;2022-11-18T01:58:56;1.88;;;1.00;;
76318;SDS011;65131;48.894;8.422;2022-11-18T02:01:24;1.48;;;1.00;;
76318;SDS011;65131;48.894;8.422;2022-11-18T02:03:50;2.10;;;0.80;;
76318;SDS011;65131;48.894;8.422;2022-11-18T02:06:17;2.20;;;1.20;;
76318;SDS011;65131;48.894;8.422;2022-11-18T02:08:46;2.58;;;0.90;;
76318;SDS011;65131;48.894;8.422;2022-11-18T02:11:12;1.90;;;1.42;;
76318;SDS011;65131;48.894;8.422;2022-11-18T02:14:05;3.25;;;1.08;;
76318;SDS011;65131;48.894;8.422;2022-11-18T02:16:46;1.17;;;0.95;;
76318;SDS011;65131;48.894;8.422;2022-11-18T02:30:03;1.17;;;0.63;;
76318;SDS011;65131;48.894;8.422;2022-11-18T02:32:42;2.05;;;1.00;;
76318;SDS011;65131;48.894;8.422;2022-11-18T02:38:02;1.50;;;0.80;;
76318;SDS011;65131;48.894;8.422;2022-11-18T02:40:46;1.05;;;0.63;;
76318;SDS011;65131;48.894;8.422;2022-11-18T02:43:19;1.52;;;0.85;;
76318;SDS011;65131;48.894;8.422;2022-11-18T02:45:48;1.80;;;1.10;;
76318;SDS011;65131;48.894;8.422;2022-11-18T02:48:15;2.53;;;1.00;;
76318;SDS011;65131;48.894;8.422;2022-11-18T02:50:42;1.92;;;0.98;;
76318;SDS011;65131;48.894;8.422;2022-11-18T02:53:09;1.42;;;0.90;;
76318;SDS011;65131;48.894;8.422;2022-11-18T02:55:37;1.60;;;1.00;;
76318;SDS011;65131;48.894;8.422;2022-11-18T02:58:05;1.50;;;1.00;;
76318;SDS011;65131;48.894;8.422;2022-11-18T03:00:31;1.52;;;0.95;;
76318;SDS011;65131;48.894;8.422;2022-11-18T03:02:57;1.02;;;0.52;;
76318;SDS011;65131;48.894;8.422;2022-11-18T03:05:29;1.45;;;0.90;;
76318;SDS011;65131;48.894;8.422;2022-11-18T03:08:02;1.40;;;1.00;;
76318;SDS011;65131;48.894;8.422;2022-11-18T03:10:34;1.35;;;1.00;;
76318;SDS011;65131;48.894;8.422;2022-11-18T03:13:10;1.60;;;1.25;;
76318;SDS011;65131;48.894;8.422;2022-11-18T03:18:38;1.75;;;0.90;;
76318;SDS011;65131;48.894;8.422;2022-11-18T03:21:11;1.88;;;1.00;;
76318;SDS011;65131;48.894;8.422;2022-11-18T03:23:51;1.38;;;0.80;;
76318;SDS011;65131;48.894;8.422;2022-11-18T03:26:23;1.42;;;1.00;;
76318;SDS011;65131;48.894;8.422;2022-11-18T03:28:53;2.38;;;1.17;;
76318;SDS011;65131;48.894;8.422;2022-11-18T03:31:26;1.58;;;1.20;;
76318;SDS011;65131;48.894;8.422;2022-11-18T03:34:02;1.42;;;0.90;;
76318;SDS011;65131;48.894;8.422;2022-11-18T03:36:32;1.35;;;1.10;;
76318;SDS011;65131;48.894;8.422;2022-11-18T03:39:00;1.42;;;1.13;;
76318;SDS011;65131;48.894;8.422;2022-11-18T03:41:28;1.88;;;1.20;;
76318;SDS011;65131;48.894;8.422;2022-11-18T03:43:59;2.05;;;1.10;;
76318;SDS011;65131;48.894;8.422;2022-11-18T03:46:30;2.00;;;1.00;;
76318;SDS011;65131;48.894;8.422;2022-11-18T03:49:01;1.88;;;0.93;;
76318;SDS011;65131;48.894;8.422;2022-11-18T03:54:08;1.55;;;0.98;;
76318;SDS011;65131;48.894;8.422;2022-11-18T03:56:41;1.35;;;1.00;;
76318;SDS011;65131;48.894;8.422;2022-11-18T04:01:42;1.50;;;1.00;;
76318;SDS011;65131;48.894;8.422;2022-11-18T04:04:11;1.70;;;0.98;;
76318;SDS011;65131;48.894;8.422;2022-11-18T04:09:05;1.40;;;0.93;;
76318;SDS011;65131;48.894;8.422;2022-11-18T04:11:41;1.20;;;0.95;;
76318;SDS011;65131;48.894;8.422;2022-11-18T04:14:28;1.80;;;1.15;;
76318;SDS011;65131;48.894;8.422;2022-11-18T04:16:56;3.05;;;1.10;;
76318;SDS011;65131;48.894;8.422;2022-11-18T04:19:21;1.60;;;1.02;;
76318;SDS011;65131;48.894;8.422;2022-11-18T04:21:47;1.58;;;1.05;;
76318;SDS011;65131;48.894;8.422;2022-11-18T04:24:14;1.80;;;0.90;;
76318;SDS011;65131;48.894;8.422;2022-11-18T04:26:39;1.13;;;0.88;;
76318;SDS011;65131;48.894;8.422;2022-11-18T04:29:05;1.52;;;0.98;;
76318;SDS011;65131;48.894;8.422;2022-11-18T04:31:31;1.42;;;0.80;;
76318;SDS011;65131;48.894;8.422;2022-11-18T04:33:57;1.33;;;0.90;;
76318;SDS011;65131;48.894;8.422;2022-11-18T04:36:22;1.60;;;0.90;;
76318;SDS011;65131;48.894;8.422;2022-11-18T04:38:48;2.00;;;1.00;;
76318;SDS011;65131;48.894;8.422;2022-11-18T04:41:14;1.73;;;1.00;;
76318;SDS011;65131;48.894;8.422;2022-11-18T04:43:39;1.23;;;0.98;;
76318;SDS011;65131;48.894;8.422;2022-11-18T04:46:05;1.20;;;0.80;;
76318;SDS011;65131;48.894;8.422;2022-11-18T04:48:31;1.25;;;0.90;;
76318;SDS011;65131;48.894;8.422;2022-11-18T04:50:57;1.95;;;1.20;;
76318;SDS011;65131;48.894;8.422;2022-11-18T04:53:26;1.13;;;0.90;;
76318;SDS011;65131;48.894;8.422;2022-11-18T04:55:52;1.40;;;0.40;;
76318;SDS011;65131;48.894;8.422;2022-11-18T04:58:18;2.38;;;0.90;;
76318;SDS011;65131;48.894;8.422;2022-11-18T05:00:43;2.05;;;0.82;;
76318;SDS011;65131;48.894;8.422;2022-11-18T05:03:09;1.35;;;1.17;;
76318;SDS011;65131;48.894;8.422;2022-11-18T05:05:35;2.30;;;1.27;;
76318;SDS011;65131;48.894;8.422;2022-11-18T05:08:00;1.33;;;0.95;;
76318;SDS011;65131;48.894;8.422;2022-11-18T05:10:26;1.25;;;0.85;;
76318;SDS011;65131;48.894;8.422;2022-11-18T05:12:52;1.27;;;0.93;;
76318;SDS011;65131;48.894;8.422;2022-11-18T05:15:18;1.23;;;0.95;;
76318;SDS011;65131;48.894;8.422;2022-11-18T05:17:46;1.33;;;0.95;;
76318;SDS011;65131;48.894;8.422;2022-11-18T05:20:12;1.65;;;1.02;;
76318;SDS011;65131;48.894;8.422;2022-11-18T05:22:38;1.13;;;0.80;;
76318;SDS011;65131;48.894;8.422;2022-11-18T05:25:04;1.05;;;0.80;;
76318;SDS011;65131;48.894;8.422;2022-11-18T05:27:31;1.77;;;1.13;;
76318;SDS011;65131;48.894;8.422;2022-11-18T05:29:57;1.30;;;1.20;;
76318;SDS011;65131;48.894;8.422;2022-11-18T05:32:23;1.42;;;1.05;;
76318;SDS011;65131;48.894;8.422;2022-11-18T05:34:48;1.17;;;1.00;;
76318;SDS011;65131;48.894;8.422;2022-11-18T05:37:14;1.17;;;0.90;;
76318;SDS011;65131;48.894;8.422;2022-11-18T05:39:40;1.30;;;1.02;;
76318;SDS011;65131;48.894;8.422;2022-11-18T05:42:06;1.25;;;0.95;;
76318;SDS011;65131;48.894;8.422;2022-11-18T05:44:50;1.50;;;1.13;;
76318;SDS011;65131;48.894;8.422;2022-11-18T05:47:17;2.45;;;0.88;;
76318;SDS011;65131;48.894;8.422;2022-11-18T05:49:43;1.25;;;0.95;;
76318;SDS011;65131;48.894;8.422;2022-11-18T05:52:08;1.45;;;1.00;;
76318;SDS011;65131;48.894;8.422;2022-11-18T05:54:36;1.70;;;1.13;;
76318;SDS011;65131;48.894;8.422;2022-11-18T05:57:06;1.40;;;0.90;;
76318;SDS011;65131;48.894;8.422;2022-11-18T05:59:32;1.08;;;0.80;;
76318;SDS011;65131;48.894;8.422;2022-11-18T06:02:02;1.80;;;1.00;;
76318;SDS011;65131;48.894;8.422;2022-11-18T06:04:35;1.65;;;1.10;;
76318;SDS011;65131;48.894;8.422;2022-11-18T06:07:09;1.30;;;0.98;;
76318;SDS011;65131;48.894;8.422;2022-11-18T06:09:44;0.80;;;0.40;;
76318;SDS011;65131;48.894;8.422;2022-11-18T06:12:12;1.35;;;0.80;;
76318;SDS011;65131;48.894;8.422;2022-11-18T06:14:45;1.20;;;0.82;;
76318;SDS011;65131;48.894;8.422;2022-11-18T06:17:16;1.88;;;1.20;;
76318;SDS011;65131;48.894;8.422;2022-11-18T06:19:44;1.65;;;1.00;;
76318;SDS011;65131;48.894;8.422;2022-11-18T06:22:11;1.60;;;1.00;;
76318;SDS011;65131;48.894;8.422;2022-11-18T06:24:36;2.08;;;1.10;;
76318;SDS011;65131;48.894;8.422;2022-11-18T06:27:03;1.92;;;1.38;;
76318;SDS011;65131;48.894;8.422;2022-11-18T06:29:28;2.10;;;1.30;;
76318;SDS011;65131;48.894;8.422;2022-11-18T06:31:54;1.67;;;0.85;;
76318;SDS011;65131;48.894;8.422;2022-11-18T06:34:20;1.70;;;1.10;;
76318;SDS011;65131;48.894;8.422;2022-11-18T06:36:46;1.92;;;1.20;;
76318;SDS011;65131;48.894;8.422;2022-11-18T06:39:11;1.75;;;1.15;;
76318;SDS011;65131;48.894;8.422;2022-11-18T06:41:37;1.70;;;1.33;;
76318;SDS011;65131;48.894;8.422;2022-11-18T06:44:02;1.92;;;1.13;;
76318;SDS011;65131;48.894;8.422;2022-11-18T06:46:28;1.45;;;0.95;;
76318;SDS011;65131;48.894;8.422;2022-11-18T06:49:26;1.60;;;1.05;;
76318;SDS011;65131;48.894;8.422;2022-11-18T06:51:52;1.77;;;1.10;;
76318;SDS011;65131;48.894;8.422;2022-11-18T06:54:19;1.38;;;0.70;;
76318;SDS011;65131;48.894;8.422;2022-11-18T06:56:45;1.60;;;1.30;;
76318;SDS011;65131;48.894;8.422;2022-11-18T06:59:11;1.90;;;1.23;;
76318;SDS011;65131;48.894;8.422;2022-11-18T07:01:37;1.92;;;1.10;;
76318;SDS011;65131;48.894;8.422;2022-11-18T07:04:05;1.55;;;1.10;;
76318;SDS011;65131;48.894;8.422;2022-11-18T07:06:32;1.63;;;1.00;;
76318;SDS011;65131;48.894;8.422;2022-11-18T07:08:59;1.90;;;1.15;;
76318;SDS011;65131;48.894;8.422;2022-11-18T07:11:25;2.13;;;1.35;;
76318;SDS011;65131;48.894;8.422;2022-11-18T07:13:51;2.33;;;1.27;;
76318;SDS011;65131;48.894;8.422;2022-11-18T07:16:21;1.33;;;0.82;;
76318;SDS011;65131;48.894;8.422;2022-11-18T07:18:48;1.50;;;1.00;;
76318;SDS011;65131;48.894;8.422;2022-11-18T07:21:16;1.40;;;1.00;;
76318;SDS011;65131;48.894;8.422;2022-11-18T07:23:43;1.90;;;1.00;;
76318;SDS011;65131;48.894;8.422;2022-11-18T07:26:09;1.77;;;1.10;;
76318;SDS011;65131;48.894;8.422;2022-11-18T07:28:35;1.67;;;1.02;;
76318;SDS011;65131;48.894;8.422;2022-11-18T07:33:31;1.40;;;1.00;;
76318;SDS011;65131;48.894;8.422;2022-11-18T07:36:00;1.67;;;0.88;;
76318;SDS011;65131;48.894;8.422;2022-11-18T07:38:31;1.60;;;1.10;;
76318;SDS011;65131;48.894;8.422;2022-11-18T07:41:16;1.73;;;1.33;;
76318;SDS011;65131;48.894;8.422;2022-11-18T07:43:43;1.42;;;1.13;;
76318;SDS011;65131;48.894;8.422;2022-11-18T07:46:16;2.13;;;1.05;;
76318;SDS011;65131;48.894;8.422;2022-11-18T07:48:43;1.73;;;1.13;;
76318;SDS011;65131;48.894;8.422;2022-11-18T07:51:10;1.48;;;1.08;;
76318;SDS011;65131;48.894;8.422;2022-11-18T07:53:36;1.27;;;0.90;;
76318;SDS011;65131;48.894;8.422;2022-11-18T07:56:02;1.30;;;0.85;;
76318;SDS011;65131;48.894;8.422;2022-11-18T07:58:29;1.40;;;0.70;;
76318;SDS011;65131;48.894;8.422;2022-11-18T08:00:54;1.35;;;0.80;;
76318;SDS011;65131;48.894;8.422;2022-11-18T08:03:26;1.50;;;1.25;;
76318;SDS011;65131;48.894;8.422;2022-11-18T08:05:59;1.20;;;0.90;;
76318;SDS011;65131;48.894;8.422;2022-11-18T08:08:25;1.90;;;1.08;;
76318;SDS011;65131;48.894;8.422;2022-11-18T08:10:54;2.60;;;1.30;;
76318;SDS011;65131;48.894;8.422;2022-11-18T08:13:20;1.90;;;1.23;;
76318;SDS011;65131;48.894;8.422;2022-11-18T08:15:46;2.10;;;1.48;;
76318;SDS011;65131;48.894;8.422;2022-11-18T08:18:11;1.42;;;1.08;;
76318;SDS011;65131;48.894;8.422;2022-11-18T08:20:37;1.60;;;1.02;;
76318;SDS011;65131;48.894;8.422;2022-11-18T08:23:03;2.00;;;1.23;;
76318;SDS011;65131;48.894;8.422;2022-11-18T08:25:28;1.75;;;0.90;;
76318;SDS011;65131;48.894;8.422;2022-11-18T08:27:54;1.80;;;1.38;;
76318;SDS011;65131;48.894;8.422;2022-11-18T08:30:20;2.40;;;1.58;;
76318;SDS011;65131;48.894;8.422;2022-11-18T08:32:46;2.50;;;1.92;;
76318;SDS011;65131;48.894;8.422;2022-11-18T08:35:12;2.17;;;1.60;;
76318;SDS011;65131;48.894;8.422;2022-11-18T08:37:38;2.90;;;2.30;;
76318;SDS011;65131;48.894;8.422;2022-11-18T08:40:04;3.00;;;2.42;;
76318;SDS011;65131;48.894;8.422;2022-11-18T08:42:30;2.47;;;1.85;;
76318;SDS011;65131;48.894;8.422;2022-11-18T08:44:56;3.25;;;2.38;;
76318;SDS011;65131;48.894;8.422;2022-11-18T08:47:21;2.83;;;2.00;;
76318;SDS011;65131;48.894;8.422;2022-11-18T08:49:47;3.83;;;2.45;;
76318;SDS011;65131;48.894;8.422;2022-11-18T08:52:13;3.13;;;2.47;;
76318;SDS011;65131;48.894;8.422;2022-11-18T08:54:38;3.63;;;1.50;;
76318;SDS011;65131;48.894;8.422;2022-11-18T08:57:04;2.63;;;2.08;;
76318;SDS011;65131;48.894;8.422;2022-11-18T08:59:30;3.25;;;2.30;;
76318;SDS011;65131;48.894;8.422;2022-11-18T09:01:56;2.42;;;1.40;;
76318;SDS011;65131;48.894;8.422;2022-11-18T09:04:22;5.63;;;2.80;;
76318;SDS011;65131;48.894;8.422;2022-11-18T09:06:48;4.45;;;2.42;;
76318;SDS011;65131;48.894;8.422;2022-11-18T09:09:14;3.38;;;2.20;;
76318;SDS011;65131;48.894;8.422;2022-11-18T09:11:40;2.67;;;2.00;;
76318;SDS011;65131;48.894;8.422;2022-11-18T09:14:06;3.20;;;2.33;;
76318;SDS011;65131;48.894;8.422;2022-11-18T09:16:33;3.22;;;2.28;;
76318;SDS011;65131;48.894;8.422;2022-11-18T09:18:59;2.95;;;2.20;;
76318;SDS011;65131;48.894;8.422;2022-11-18T09:21:25;3.03;;;2.28;;
76318;SDS011;65131;48.894;8.422;2022-11-18T09:23:51;2.80;;;2.05;;
76318;SDS011;65131;48.894;8.422;2022-11-18T09:26:18;2.80;;;2.15;;
76318;SDS011;65131;48.894;8.422;2022-11-18T09:28:45;3.05;;;1.92;;
76318;SDS011;65131;48.894;8.422;2022-11-18T09:31:12;2.55;;;1.83;;
76318;SDS011;65131;48.894;8.422;2022-11-18T09:33:39;3.03;;;1.90;;
76318;SDS011;65131;48.894;8.422;2022-11-18T09:36:13;4.50;;;2.33;;
76318;SDS011;65131;48.894;8.422;2022-11-18T09:38:40;3.42;;;2.05;;
76318;SDS011;65131;48.894;8.422;2022-11-18T09:49:36;3.40;;;2.15;;
76318;SDS011;65131;48.894;8.422;2022-11-18T09:52:09;5.63;;;2.47;;
76318;SDS011;65131;48.894;8.422;2022-11-18T09:54:38;4.72;;;2.05;;
76318;SDS011;65131;48.894;8.422;2022-11-18T09:57:15;3.47;;;2.60;;
76318;SDS011;65131;48.894;8.422;2022-11-18T09:59:42;5.63;;;2.70;;
76318;SDS011;65131;48.894;8.422;2022-11-18T10:04:37;3.17;;;1.98;;
76318;SDS011;65131;48.894;8.422;2022-11-18T10:07:05;3.42;;;1.95;;
76318;SDS011;65131;48.894;8.422;2022-11-18T10:09:40;3.38;;;1.40;;
76318;SDS011;65131;48.894;8.422;2022-11-18T10:15:14;4.43;;;2.17;;
76318;SDS011;65131;48.894;8.422;2022-11-18T10:18:03;3.35;;;2.17;;
76318;SDS011;65131;48.894;8.422;2022-11-18T10:23:20;3.00;;;2.33;;
76318;SDS011;65131;48.894;8.422;2022-11-18T10:25:48;3.47;;;2.10;;
76318;SDS011;65131;48.894;8.422;2022-11-18T10:28:15;3.20;;;2.20;;
76318;SDS011;65131;48.894;8.422;2022-11-18T10:30:46;3.72;;;2.35;;
76318;SDS011;65131;48.894;8.422;2022-11-18T10:33:29;5.55;;;3.13;;
76318;SDS011;65131;48.894;8.422;2022-11-18T10:38:42;3.47;;;2.40;;
76318;SDS011;65131;48.894;8.422;2022-11-18T10:41:13;2.95;;;2.05;;
76318;SDS011;65131;48.894;8.422;2022-11-18T10:43:49;3.10;;;2.38;;
76318;SDS011;65131;48.894;8.422;2022-11-18T10:48:43;3.28;;;1.85;;
76318;SDS011;65131;48.894;8.422;2022-11-18T10:51:19;5.75;;;2.00;;
76318;SDS011;65131;48.894;8.422;2022-11-18T10:53:47;3.20;;;2.03;;
76318;SDS011;65131;48.894;8.422;2022-11-18T10:56:13;3.33;;;2.17;;
76318;SDS011;65131;48.894;8.422;2022-11-18T10:58:45;3.40;;;2.30;;
76318;SDS011;65131;48.894;8.422;2022-11-18T11:01:22;2.22;;;1.52;;
76318;SDS011;65131;48.894;8.422;2022-11-18T11:03:57;3.63;;;2.08;;
76318;SDS011;65131;48.894;8.422;2022-11-18T11:08:51;2.70;;;2.10;;
76318;SDS011;65131;48.894;8.422;2022-11-18T11:11:28;3.22;;;2.40;;
76318;SDS011;65131;48.894;8.422;2022-11-18T11:16:30;4.63;;;2.00;;
76318;SDS011;65131;48.894;8.422;2022-11-18T11:18:59;3.60;;;2.17;;
76318;SDS011;65131;48.894;8.422;2022-11-18T11:21:26;3.83;;;1.92;;
76318;SDS011;65131;48.894;8.422;2022-11-18T11:23:53;5.22;;;2.53;;
76318;SDS011;65131;48.894;8.422;2022-11-18T11:26:52;3.47;;;2.40;;
76318;SDS011;65131;48.894;8.422;2022-11-18T11:40:42;2.45;;;1.70;;
76318;SDS011;65131;48.894;8.422;2022-11-18T11:43:23;3.08;;;1.60;;
76318;SDS011;65131;48.894;8.422;2022-11-18T11:57:01;3.25;;;2.10;;
76318;SDS011;65131;48.894;8.422;2022-11-18T11:59:51;3.25;;;1.67;;
76318;SDS011;65131;48.894;8.422;2022-11-18T12:02:43;4.85;;;2.20;;
76318;SDS011;65131;48.894;8.422;2022-11-18T12:05:30;4.20;;;2.53;;
76318;SDS011;65131;48.894;8.422;2022-11-18T12:08:01;5.30;;;2.70;;
76318;SDS011;65131;48.894;8.422;2022-11-18T12:10:37;3.53;;;2.33;;
76318;SDS011;65131;48.894;8.422;2022-11-18T12:13:16;5.90;;;2.35;;
76318;SDS011;65131;48.894;8.422;2022-11-18T12:32:32;3.47;;;1.70;;
76318;SDS011;65131;48.894;8.422;2022-11-18T12:37:41;2.67;;;1.83;;
76318;SDS011;65131;48.894;8.422;2022-11-18T12:40:08;3.05;;;2.10;;
76318;SDS011;65131;48.894;8.422;2022-11-18T12:42:43;4.15;;;1.83;;
76318;SDS011;65131;48.894;8.422;2022-11-18T12:50:51;3.75;;;2.25;;
76318;SDS011;65131;48.894;8.422;2022-11-18T12:58:59;3.03;;;2.47;;
76318;SDS011;65131;48.894;8.422;2022-11-18T13:01:26;4.10;;;2.30;;
76318;SDS011;65131;48.894;8.422;2022-11-18T13:04:13;5.45;;;2.20;;
76318;SDS011;65131;48.894;8.422;2022-11-18T13:06:40;3.30;;;2.00;;
76318;SDS011;65131;48.894;8.422;2022-11-18T13:09:16;3.55;;;2.10;;
76318;SDS011;65131;48.894;8.422;2022-11-18T13:14:42;3.75;;;2.30;;
76318;SDS011;65131;48.894;8.422;2022-11-18T13:25:43;3.35;;;2.22;;
76318;SDS011;65131;48.894;8.422;2022-11-18T13:30:47;4.07;;;2.40;;
76318;SDS011;65131;48.894;8.422;2022-11-18T13:33:19;6.65;;;2.83;;
76318;SDS011;65131;48.894;8.422;2022-11-18T13:35:45;4.72;;;2.53;;
76318;SDS011;65131;48.894;8.422;2022-11-18T13:38:21;5.05;;;2.58;;
76318;SDS011;65131;48.894;8.422;2022-11-18T13:40:48;4.53;;;2.33;;
76318;SDS011;65131;48.894;8.422;2022-11-18T13:43:31;4.93;;;2.40;;
76318;SDS011;65131;48.894;8.422;2022-11-18T13:46:12;6.00;;;3.60;;
76318;SDS011;65131;48.894;8.422;2022-11-18T13:48:44;4.38;;;2.85;;
76318;SDS011;65131;48.894;8.422;2022-11-18T13:51:13;4.25;;;2.88;;
76318;SDS011;65131;48.894;8.422;2022-11-18T13:53:39;5.90;;;3.08;;
76318;SDS011;65131;48.894;8.422;2022-11-18T13:56:14;5.18;;;2.80;;
76318;SDS011;65131;48.894;8.422;2022-11-18T14:01:26;4.07;;;2.72;;
76318;SDS011;65131;48.894;8.422;2022-11-18T14:06:36;5.55;;;2.88;;
76318;SDS011;65131;48.894;8.422;2022-11-18T14:12:00;5.38;;;3.15;;
76318;SDS011;65131;48.894;8.422;2022-11-18T14:19:49;7.53;;;3.20;;
76318;SDS011;65131;48.894;8.422;2022-11-18T14:22:23;4.57;;;2.90;;
76318;SDS011;65131;48.894;8.422;2022-11-18T14:25:00;5.50;;;2.88;;
76318;SDS011;65131;48.894;8.422;2022-11-18T14:35:51;6.05;;;3.03;;
76318;SDS011;65131;48.894;8.422;2022-11-18T14:41:08;5.00;;;2.85;;
76318;SDS011;65131;48.894;8.422;2022-11-18T14:46:04;6.70;;;2.70;;
76318;SDS011;65131;48.894;8.422;2022-11-18T14:48:35;4.43;;;2.90;;
76318;SDS011;65131;48.894;8.422;2022-11-18T14:51:01;8.20;;;3.25;;
76318;SDS011;65131;48.894;8.422;2022-11-18T14:53:27;5.25;;;3.40;;
76318;SDS011;65131;48.894;8.422;2022-11-18T14:55:52;6.22;;;2.50;;
76318;SDS011;65131;48.894;8.422;2022-11-18T14:58:21;6.95;;;3.10;;
76318;SDS011;65131;48.894;8.422;2022-11-18T15:00:47;5.35;;;2.40;;
76318;SDS011;65131;48.894;8.422;2022-11-18T15:03:13;5.88;;;2.47;;
76318;SDS011;65131;48.894;8.422;2022-11-18T15:05:39;6.80;;;2.45;;
76318;SDS011;65131;48.894;8.422;2022-11-18T15:08:05;3.20;;;1.95;;
76318;SDS011;65131;48.894;8.422;2022-11-18T15:10:32;6.28;;;2.33;;
76318;SDS011;65131;48.894;8.422;2022-11-18T15:12:58;6.88;;;2.10;;
76318;SDS011;65131;48.894;8.422;2022-11-18T15:15:24;4.07;;;1.73;;
76318;SDS011;65131;48.894;8.422;2022-11-18T15:17:50;5.38;;;2.53;;
76318;SDS011;65131;48.894;8.422;2022-11-18T15:20:16;4.10;;;1.98;;
76318;SDS011;65131;48.894;8.422;2022-11-18T15:22:44;3.80;;;2.00;;
76318;SDS011;65131;48.894;8.422;2022-11-18T15:25:09;4.68;;;2.35;;
76318;SDS011;65131;48.894;8.422;2022-11-18T15:27:35;4.50;;;2.17;;
76318;SDS011;65131;48.894;8.422;2022-11-18T15:30:01;4.63;;;2.00;;
76318;SDS011;65131;48.894;8.422;2022-11-18T15:32:29;4.00;;;2.05;;
76318;SDS011;65131;48.894;8.422;2022-11-18T15:34:55;3.58;;;2.50;;
76318;SDS011;65131;48.894;8.422;2022-11-18T15:37:21;4.05;;;1.98;;
76318;SDS011;65131;48.894;8.422;2022-11-18T15:39:46;6.80;;;2.03;;
76318;SDS011;65131;48.894;8.422;2022-11-18T15:42:16;5.60;;;3.42;;
76318;SDS011;65131;48.894;8.422;2022-11-18T15:44:42;3.90;;;2.67;;
76318;SDS011;65131;48.894;8.422;2022-11-18T15:47:09;5.45;;;2.17;;
76318;SDS011;65131;48.894;8.422;2022-11-18T15:49:34;9.82;;;2.78;;
76318;SDS011;65131;48.894;8.422;2022-11-18T15:52:00;6.10;;;2.47;;
76318;SDS011;65131;48.894;8.422;2022-11-18T15:54:25;4.70;;;2.08;;
76318;SDS011;65131;48.894;8.422;2022-11-18T15:56:51;4.38;;;1.35;;
76318;SDS011;65131;48.894;8.422;2022-11-18T15:59:17;5.38;;;2.05;;
76318;SDS011;65131;48.894;8.422;2022-11-18T16:01:44;5.20;;;2.05;;
76318;SDS011;65131;48.894;8.422;2022-11-18T16:04:12;4.07;;;2.13;;
76318;SDS011;65131;48.894;8.422;2022-11-18T16:06:38;4.72;;;1.60;;
76318;SDS011;65131;48.894;8.422;2022-11-18T16:09:04;5.30;;;3.38;;
76318;SDS011;65131;48.894;8.422;2022-11-18T16:11:31;3.88;;;2.28;;
76318;SDS011;65131;48.894;8.422;2022-11-18T16:14:17;5.03;;;3.10;;
76318;SDS011;65131;48.894;8.422;2022-11-18T16:16:44;4.47;;;2.60;;
76318;SDS011;65131;48.894;8.422;2022-11-18T16:19:12;5.65;;;3.20;;
76318;SDS011;65131;48.894;8.422;2022-11-18T16:21:40;3.53;;;2.53;;
76318;SDS011;65131;48.894;8.422;2022-11-18T16:24:09;4.35;;;1.88;;
76318;SDS011;65131;48.894;8.422;2022-11-18T16:26:36;5.53;;;2.30;;
76318;SDS011;65131;48.894;8.422;2022-11-18T16:29:02;4.88;;;2.35;;
76318;SDS011;65131;48.894;8.422;2022-11-18T16:31:28;6.07;;;3.00;;
76318;SDS011;65131;48.894;8.422;2022-11-18T16:34:08;6.13;;;2.80;;
76318;SDS011;65131;48.894;8.422;2022-11-18T16:36:36;5.47;;;2.92;;
76318;SDS011;65131;48.894;8.422;2022-11-18T16:39:03;3.70;;;2.40;;
76318;SDS011;65131;48.894;8.422;2022-11-18T16:41:33;4.55;;;2.58;;
76318;SDS011;65131;48.894;8.422;2022-11-18T16:44:01;7.43;;;3.30;;
76318;SDS011;65131;48.894;8.422;2022-11-18T16:46:28;3.28;;;1.88;;
76318;SDS011;65131;48.894;8.422;2022-11-18T16:48:55;5.07;;;2.63;;
76318;SDS011;65131;48.894;8.422;2022-11-18T16:51:22;7.55;;;2.72;;
76318;SDS011;65131;48.894;8.422;2022-11-18T16:53:56;4.20;;;2.60;;
76318;SDS011;65131;48.894;8.422;2022-11-18T16:56:25;5.10;;;2.47;;
76318;SDS011;65131;48.894;8.422;2022-11-18T16:59:04;3.55;;;2.55;;
76318;SDS011;65131;48.894;8.422;2022-11-18T17:01:32;5.20;;;2.75;;
76318;SDS011;65131;48.894;8.422;2022-11-18T17:03:57;5.80;;;2.55;;
76318;SDS011;65131;48.894;8.422;2022-11-18T17:06:27;5.28;;;3.60;;
76318;SDS011;65131;48.894;8.422;2022-11-18T17:08:54;6.30;;;3.15;;
76318;SDS011;65131;48.894;8.422;2022-11-18T17:11:20;4.03;;;2.60;;
76318;SDS011;65131;48.894;8.422;2022-11-18T17:13:46;3.63;;;2.63;;
76318;SDS011;65131;48.894;8.422;2022-11-18T17:16:13;4.78;;;2.80;;
76318;SDS011;65131;48.894;8.422;2022-11-18T17:18:40;4.65;;;3.58;;
76318;SDS011;65131;48.894;8.422;2022-11-18T17:21:06;6.07;;;3.30;;
76318;SDS011;65131;48.894;8.422;2022-11-18T17:23:34;6.18;;;3.17;;
76318;SDS011;65131;48.894;8.422;2022-11-18T17:26:00;4.25;;;2.97;;
76318;SDS011;65131;48.894;8.422;2022-11-18T17:28:27;3.53;;;2.00;;
76318;SDS011;65131;48.894;8.422;2022-11-18T17:30:53;4.97;;;2.80;;